Etusivu
METAR-TAF:

METAR-TAF

Lentoasemat :

Åre Östersundin lentoasema

Östersund-Frösön, Ruotsi

Leveyspiiri: 63-11N, Pituuspiiri: 014-30E, korkeus merenpinnasta: 376 m

Tämänhetkinen sää

Tämä raportti tehtiin 32 minuuttia sitten, kello 19.50 UTC
Tuuli 9 kn etelästä/kaakosta
Lämpötila 6°C
Kosteus 81%
Ilmanpaine 1015 hPa
Näkyvyys 10 km tai enemmän
ei pilviä alle 1500 m:ssä eikä cumulonimbus-pilviä

METAR: ESNZ 161950Z 15009KT CAVOK 06/03 Q1015

Aika: 22:22 (20:22 UTC)

Sääennuste

Tämä raportti tehtiin 2 tuntia ja 52 minuuttia sitten, kello 17.30 UTC
Ennuste voimassa 16. päivästä klo 18 UTC - 16. päivään klo 22 UTC
Tuuli 8 kn etelästä/kaakosta
Näkyvyys 10 km tai enemmän
ei pilviä alle 1500 m:ssä eikä cumulonimbus-pilviä

TAF: ESNZ 161730Z 1618/1622 16008KT CAVOK

Säähavainnot ja -ennusteet yli 4000 lentoasemalta (METAR- ja TAF-raportit).

Käytössä olevat sääasemat on merkitty karttaan keltaisilla ja punaisilla pisteillä.

Aseta hiiri pisteen päälle nähdäksesi sääaseman nimen.

Klikkaa sitten nähdäksesi säähavainnot ja -ennusteet.

Kartan vaihtaminen: klikkaa mustalla rastilla varustettuja vihreitä pisteitä, niin voit zoomata sisään; viivalla varustettua vihreää pistettä, niin voit zoomata ulos tai vihreitä nuolia, niin pääset viereisille kartoille.


METAR-TAF: